sensor_id;sensor_type;location;lat;lon;timestamp;pressure;altitude;pressure_sealevel;temperature;humidity
8051;BME280;4068;42.158;24.732;2023-03-19T00:01:03;100289.94;;;2.05;94.51
8051;BME280;4068;42.158;24.732;2023-03-19T00:03:29;100284.69;;;2.05;94.59
8051;BME280;4068;42.158;24.732;2023-03-19T00:05:55;100288.38;;;2.00;94.76
8051;BME280;4068;42.158;24.732;2023-03-19T00:08:21;100286.94;;;1.89;95.42
8051;BME280;4068;42.158;24.732;2023-03-19T00:10:47;100287.31;;;1.79;96.29
8051;BME280;4068;42.158;24.732;2023-03-19T00:13:12;100292.53;;;1.79;96.51
8051;BME280;4068;42.158;24.732;2023-03-19T00:15:37;100290.66;;;1.82;96.52
8051;BME280;4068;42.158;24.732;2023-03-19T00:18:03;100271.88;;;1.69;96.54
8051;BME280;4068;42.158;24.732;2023-03-19T00:20:30;100285.03;;;1.95;96.04
8051;BME280;4068;42.158;24.732;2023-03-19T00:22:56;100266.00;;;1.91;95.42
8051;BME280;4068;42.158;24.732;2023-03-19T00:25:21;100265.56;;;1.77;95.65
8051;BME280;4068;42.158;24.732;2023-03-19T00:27:47;100271.88;;;1.69;96.14
8051;BME280;4068;42.158;24.732;2023-03-19T00:30:12;100275.56;;;1.64;96.90
8051;BME280;4068;42.158;24.732;2023-03-19T00:32:39;100248.09;;;1.50;96.94
8051;BME280;4068;42.158;24.732;2023-03-19T00:35:05;100272.88;;;1.65;97.07
8051;BME280;4068;42.158;24.732;2023-03-19T00:37:32;100261.78;;;1.59;97.54
8051;BME280;4068;42.158;24.732;2023-03-19T00:39:57;100221.09;;;1.23;98.07
8051;BME280;4068;42.158;24.732;2023-03-19T00:42:23;100258.88;;;1.41;99.11
8051;BME280;4068;42.158;24.732;2023-03-19T00:44:49;100225.72;;;1.42;97.97
8051;BME280;4068;42.158;24.732;2023-03-19T00:47:14;100258.41;;;1.55;98.39
8051;BME280;4068;42.158;24.732;2023-03-19T00:49:40;100249.63;;;1.58;98.22
8051;BME280;4068;42.158;24.732;2023-03-19T00:52:05;100210.88;;;1.42;97.35
8051;BME280;4068;42.158;24.732;2023-03-19T00:54:32;100211.25;;;1.58;96.70
8051;BME280;4068;42.158;24.732;2023-03-19T00:56:57;100248.56;;;1.90;95.65
8051;BME280;4068;42.158;24.732;2023-03-19T00:59:23;100238.06;;;1.92;95.25
8051;BME280;4068;42.158;24.732;2023-03-19T01:01:50;100248.25;;;1.99;93.82
8051;BME280;4068;42.158;24.732;2023-03-19T01:04:16;100242.59;;;2.12;92.01
8051;BME280;4068;42.158;24.732;2023-03-19T01:06:42;100248.69;;;2.12;91.23
8051;BME280;4068;42.158;24.732;2023-03-19T01:09:08;100221.50;;;1.91;91.40
8051;BME280;4068;42.158;24.732;2023-03-19T01:11:33;100235.31;;;1.95;91.69
8051;BME280;4068;42.158;24.732;2023-03-19T01:13:59;100239.59;;;1.97;92.30
8051;BME280;4068;42.158;24.732;2023-03-19T01:16:25;100237.88;;;1.96;92.21
8051;BME280;4068;42.158;24.732;2023-03-19T01:18:51;100230.22;;;1.92;93.06
8051;BME280;4068;42.158;24.732;2023-03-19T01:21:16;100240.56;;;1.95;93.36
8051;BME280;4068;42.158;24.732;2023-03-19T01:23:42;100236.28;;;1.92;92.85
8051;BME280;4068;42.158;24.732;2023-03-19T01:26:08;100238.22;;;1.87;92.87
8051;BME280;4068;42.158;24.732;2023-03-19T01:28:33;100237.50;;;1.82;93.42
8051;BME280;4068;42.158;24.732;2023-03-19T01:31:00;100237.59;;;1.79;93.06
8051;BME280;4068;42.158;24.732;2023-03-19T01:33:29;100240.97;;;1.82;93.00
8051;BME280;4068;42.158;24.732;2023-03-19T01:35:55;100219.00;;;1.61;93.37
8051;BME280;4068;42.158;24.732;2023-03-19T01:38:22;100219.56;;;1.44;94.46
8051;BME280;4068;42.158;24.732;2023-03-19T01:40:47;100230.56;;;1.54;94.54
8051;BME280;4068;42.158;24.732;2023-03-19T01:43:19;100223.78;;;1.48;95.01
8051;BME280;4068;42.158;24.732;2023-03-19T01:45:46;100239.41;;;1.50;95.58
8051;BME280;4068;42.158;24.732;2023-03-19T01:48:42;100232.53;;;1.47;95.29
8051;BME280;4068;42.158;24.732;2023-03-19T01:51:10;100238.81;;;1.42;96.18
8051;BME280;4068;42.158;24.732;2023-03-19T01:53:39;100218.22;;;1.31;96.22
8051;BME280;4068;42.158;24.732;2023-03-19T01:56:11;100239.00;;;1.35;96.80
8051;BME280;4068;42.158;24.732;2023-03-19T01:58:43;100241.50;;;1.38;97.00
8051;BME280;4068;42.158;24.732;2023-03-19T02:01:10;100250.81;;;1.47;96.73
8051;BME280;4068;42.158;24.732;2023-03-19T02:03:37;100248.09;;;1.50;96.94
8051;BME280;4068;42.158;24.732;2023-03-19T02:06:03;100199.22;;;1.26;96.27
8051;BME280;4068;42.158;24.732;2023-03-19T02:08:30;100249.34;;;1.65;95.79
8051;BME280;4068;42.158;24.732;2023-03-19T02:10:57;100252.03;;;1.64;95.51
8051;BME280;4068;42.158;24.732;2023-03-19T02:13:25;100248.34;;;1.69;96.21
8051;BME280;4068;42.158;24.732;2023-03-19T02:15:51;100232.53;;;1.74;95.55
8051;BME280;4068;42.158;24.732;2023-03-19T02:18:17;100233.03;;;1.85;94.96
8051;BME280;4068;42.158;24.732;2023-03-19T02:23:46;100255.75;;;2.35;92.28
8051;BME280;4068;42.158;24.732;2023-03-19T02:26:15;100269.00;;;2.56;91.20
8051;BME280;4068;42.158;24.732;2023-03-19T02:28:43;100263.13;;;2.73;89.08
8051;BME280;4068;42.158;24.732;2023-03-19T02:31:10;100269.97;;;2.77;88.34
8051;BME280;4068;42.158;24.732;2023-03-19T02:33:37;100265.47;;;2.81;87.69
8051;BME280;4068;42.158;24.732;2023-03-19T02:36:04;100274.59;;;2.94;86.53
8051;BME280;4068;42.158;24.732;2023-03-19T02:38:33;100259.00;;;2.91;85.17
8051;BME280;4068;42.158;24.732;2023-03-19T02:41:03;100275.44;;;2.94;85.37
8051;BME280;4068;42.158;24.732;2023-03-19T02:43:33;100283.53;;;2.88;85.81
8051;BME280;4068;42.158;24.732;2023-03-19T02:46:00;100292.41;;;2.84;86.16
8051;BME280;4068;42.158;24.732;2023-03-19T02:48:26;100268.09;;;2.81;85.98
8051;BME280;4068;42.158;24.732;2023-03-19T02:50:52;100274.72;;;2.91;85.87
8051;BME280;4068;42.158;24.732;2023-03-19T02:53:18;100256.81;;;2.79;85.73
8051;BME280;4068;42.158;24.732;2023-03-19T02:55:43;100285.72;;;3.01;85.35
8051;BME280;4068;42.158;24.732;2023-03-19T02:58:10;100280.13;;;3.10;85.12
8051;BME280;4068;42.158;24.732;2023-03-19T03:00:35;100251.59;;;3.02;84.00
8051;BME280;4068;42.158;24.732;2023-03-19T03:03:01;100278.72;;;3.23;83.53
8051;BME280;4068;42.158;24.732;2023-03-19T03:05:28;100254.81;;;3.09;83.21
8051;BME280;4068;42.158;24.732;2023-03-19T03:07:54;100276.78;;;3.28;82.22
8051;BME280;4068;42.158;24.732;2023-03-19T03:10:19;100278.66;;;3.25;81.90
8051;BME280;4068;42.158;24.732;2023-03-19T03:12:45;100278.44;;;3.31;82.20
8051;BME280;4068;42.158;24.732;2023-03-19T03:15:11;100284.34;;;3.36;81.88
8051;BME280;4068;42.158;24.732;2023-03-19T03:17:40;100283.03;;;3.48;81.30
8051;BME280;4068;42.158;24.732;2023-03-19T03:20:07;100245.41;;;3.27;81.59
8051;BME280;4068;42.158;24.732;2023-03-19T03:22:35;100288.34;;;3.47;81.73
8051;BME280;4068;42.158;24.732;2023-03-19T03:25:01;100280.53;;;3.45;81.68
8051;BME280;4068;42.158;24.732;2023-03-19T03:27:26;100273.06;;;3.34;82.21
8051;BME280;4068;42.158;24.732;2023-03-19T03:29:52;100282.47;;;3.40;81.66
8051;BME280;4068;42.158;24.732;2023-03-19T03:32:17;100286.19;;;3.34;81.46
8051;BME280;4068;42.158;24.732;2023-03-19T03:34:43;100288.25;;;3.26;81.76
8051;BME280;4068;42.158;24.732;2023-03-19T03:37:10;100290.03;;;3.25;82.66
8051;BME280;4068;42.158;24.732;2023-03-19T03:39:36;100259.28;;;3.07;82.92
8051;BME280;4068;42.158;24.732;2023-03-19T03:42:02;100291.06;;;3.21;82.46
8051;BME280;4068;42.158;24.732;2023-03-19T03:44:28;100280.88;;;3.14;82.79
8051;BME280;4068;42.158;24.732;2023-03-19T03:46:53;100297.94;;;3.24;83.00
8051;BME280;4068;42.158;24.732;2023-03-19T03:49:19;100251.34;;;3.08;82.20
8051;BME280;4068;42.158;24.732;2023-03-19T03:51:44;100290.22;;;3.21;83.08
8051;BME280;4068;42.158;24.732;2023-03-19T03:54:10;100289.41;;;3.19;83.34
8051;BME280;4068;42.158;24.732;2023-03-19T03:56:36;100298.16;;;3.18;83.30
8051;BME280;4068;42.158;24.732;2023-03-19T03:59:01;100265.78;;;2.97;83.81
8051;BME280;4068;42.158;24.732;2023-03-19T04:01:27;100297.44;;;3.38;94.86
8051;BME280;4068;42.158;24.732;2023-03-19T04:03:53;100301.84;;;3.59;90.23
8051;BME280;4068;42.158;24.732;2023-03-19T04:06:21;100307.25;;;3.99;95.23
8051;BME280;4068;42.158;24.732;2023-03-19T04:08:47;100312.06;;;4.30;95.08
8051;BME280;4068;42.158;24.732;2023-03-19T04:11:13;100291.56;;;4.39;90.09
8051;BME280;4068;42.158;24.732;2023-03-19T04:13:39;100295.78;;;4.43;86.00
8051;BME280;4068;42.158;24.732;2023-03-19T04:16:07;100313.91;;;4.49;86.93
8051;BME280;4068;42.158;24.732;2023-03-19T04:18:34;100314.38;;;4.38;82.89
8051;BME280;4068;42.158;24.732;2023-03-19T04:21:01;100270.84;;;4.32;84.85
8051;BME280;4068;42.158;24.732;2023-03-19T04:23:27;100293.53;;;4.54;79.24
8051;BME280;4068;42.158;24.732;2023-03-19T04:25:57;100245.78;;;4.05;78.27
8051;BME280;4068;42.158;24.732;2023-03-19T04:28:24;100307.22;;;4.42;81.97
8051;BME280;4068;42.158;24.732;2023-03-19T04:30:49;100312.44;;;4.21;79.12
8051;BME280;4068;42.158;24.732;2023-03-19T04:33:14;100295.75;;;4.02;81.33
8051;BME280;4068;42.158;24.732;2023-03-19T04:35:40;100316.69;;;4.03;78.94
8051;BME280;4068;42.158;24.732;2023-03-19T04:38:05;100317.31;;;3.88;77.49
8051;BME280;4068;42.158;24.732;2023-03-19T04:40:31;100305.84;;;3.68;78.57
8051;BME280;4068;42.158;24.732;2023-03-19T04:42:57;100310.41;;;3.63;78.82
8051;BME280;4068;42.158;24.732;2023-03-19T04:45:22;100274.41;;;3.44;79.21
8051;BME280;4068;42.158;24.732;2023-03-19T04:47:47;100315.47;;;3.68;79.11
8051;BME280;4068;42.158;24.732;2023-03-19T04:50:14;100318.34;;;3.61;79.21
8051;BME280;4068;42.158;24.732;2023-03-19T04:52:39;100310.28;;;3.66;79.69
8051;BME280;4068;42.158;24.732;2023-03-19T04:55:06;100296.03;;;3.51;79.37
8051;BME280;4068;42.158;24.732;2023-03-19T04:57:32;100312.00;;;3.67;79.72
8051;BME280;4068;42.158;24.732;2023-03-19T04:59:58;100316.91;;;3.76;79.52
8051;BME280;4068;42.158;24.732;2023-03-19T05:02:23;100313.91;;;3.86;79.22
8051;BME280;4068;42.158;24.732;2023-03-19T05:04:49;100315.34;;;3.93;78.44
8051;BME280;4068;42.158;24.732;2023-03-19T05:07:14;100330.41;;;4.10;77.53
8051;BME280;4068;42.158;24.732;2023-03-19T05:09:40;100331.25;;;4.10;77.41
8051;BME280;4068;42.158;24.732;2023-03-19T05:12:09;100318.59;;;4.20;77.02
8051;BME280;4068;42.158;24.732;2023-03-19T05:14:34;100334.00;;;4.29;75.42
8051;BME280;4068;42.158;24.732;2023-03-19T05:17:00;100341.53;;;4.37;75.74
8051;BME280;4068;42.158;24.732;2023-03-19T05:19:25;100349.44;;;4.58;74.33
8051;BME280;4068;42.158;24.732;2023-03-19T05:21:51;100344.00;;;4.62;73.91
8051;BME280;4068;42.158;24.732;2023-03-19T05:24:16;100336.44;;;4.75;73.17
8051;BME280;4068;42.158;24.732;2023-03-19T05:26:42;100334.47;;;4.80;73.21
8051;BME280;4068;42.158;24.732;2023-03-19T05:29:07;100332.41;;;4.87;73.43
8051;BME280;4068;42.158;24.732;2023-03-19T05:31:36;100337.03;;;5.01;72.99
8051;BME280;4068;42.158;24.732;2023-03-19T05:34:02;100337.56;;;5.09;72.46
8051;BME280;4068;42.158;24.732;2023-03-19T05:36:28;100343.13;;;5.22;69.99
8051;BME280;4068;42.158;24.732;2023-03-19T05:38:54;100338.66;;;5.43;68.65
8051;BME280;4068;42.158;24.732;2023-03-19T05:41:19;100346.03;;;5.54;67.92
8051;BME280;4068;42.158;24.732;2023-03-19T05:43:45;100344.13;;;5.58;66.50
8051;BME280;4068;42.158;24.732;2023-03-19T05:46:11;100352.16;;;5.55;64.67
8051;BME280;4068;42.158;24.732;2023-03-19T05:48:36;100349.88;;;5.47;66.79
8051;BME280;4068;42.158;24.732;2023-03-19T05:51:02;100348.72;;;5.52;66.51
8051;BME280;4068;42.158;24.732;2023-03-19T05:53:28;100357.63;;;5.69;66.73
8051;BME280;4068;42.158;24.732;2023-03-19T05:55:53;100357.19;;;5.78;66.46
8051;BME280;4068;42.158;24.732;2023-03-19T05:58:19;100314.78;;;5.65;65.77
8051;BME280;4068;42.158;24.732;2023-03-19T06:00:44;100355.03;;;5.86;64.63
8051;BME280;4068;42.158;24.732;2023-03-19T06:03:10;100317.34;;;5.67;65.82
8051;BME280;4068;42.158;24.732;2023-03-19T06:05:35;100356.69;;;5.70;65.82
8051;BME280;4068;42.158;24.732;2023-03-19T06:08:01;100356.13;;;5.63;67.08
8051;BME280;4068;42.158;24.732;2023-03-19T06:10:26;100362.16;;;5.65;67.65
8051;BME280;4068;42.158;24.732;2023-03-19T06:12:52;100372.19;;;5.57;67.46
8051;BME280;4068;42.158;24.732;2023-03-19T06:15:17;100382.03;;;5.53;67.67
8051;BME280;4068;42.158;24.732;2023-03-19T06:17:43;100375.75;;;5.37;68.41
8051;BME280;4068;42.158;24.732;2023-03-19T06:20:10;100389.06;;;5.53;68.67
8051;BME280;4068;42.158;24.732;2023-03-19T06:22:35;100377.81;;;5.68;68.12
8051;BME280;4068;42.158;24.732;2023-03-19T06:25:01;100384.16;;;5.83;66.44
8051;BME280;4068;42.158;24.732;2023-03-19T06:27:27;100348.78;;;5.70;64.07
8051;BME280;4068;42.158;24.732;2023-03-19T06:29:52;100388.13;;;5.92;62.69
8051;BME280;4068;42.158;24.732;2023-03-19T06:32:18;100349.28;;;5.78;63.56
8051;BME280;4068;42.158;24.732;2023-03-19T06:34:43;100382.38;;;6.03;63.32
8051;BME280;4068;42.158;24.732;2023-03-19T06:37:09;100376.72;;;6.11;62.48
8051;BME280;4068;42.158;24.732;2023-03-19T06:39:34;100340.56;;;5.95;63.13
8051;BME280;4068;42.158;24.732;2023-03-19T06:42:00;100359.69;;;6.00;64.38
8051;BME280;4068;42.158;24.732;2023-03-19T06:44:25;100341.66;;;6.10;63.03
8051;BME280;4068;42.158;24.732;2023-03-19T06:46:51;100373.03;;;6.32;61.74
8051;BME280;4068;42.158;24.732;2023-03-19T06:49:17;100371.59;;;6.44;62.03
8051;BME280;4068;42.158;24.732;2023-03-19T06:51:42;100362.75;;;6.45;62.41
8051;BME280;4068;42.158;24.732;2023-03-19T06:54:08;100358.31;;;6.63;63.41
8051;BME280;4068;42.158;24.732;2023-03-19T06:56:33;100352.13;;;6.64;63.92
8051;BME280;4068;42.158;24.732;2023-03-19T06:58:58;100368.31;;;6.91;63.55
8051;BME280;4068;42.158;24.732;2023-03-19T07:01:24;100347.34;;;7.06;63.39
8051;BME280;4068;42.158;24.732;2023-03-19T07:03:49;100335.78;;;7.08;63.74
8051;BME280;4068;42.158;24.732;2023-03-19T07:06:15;100351.56;;;7.42;62.45
8051;BME280;4068;42.158;24.732;2023-03-19T07:08:40;100308.56;;;7.40;60.99
8051;BME280;4068;42.158;24.732;2023-03-19T07:11:11;100317.50;;;7.53;60.88
8051;BME280;4068;42.158;24.732;2023-03-19T07:13:37;100343.97;;;7.84;60.31
8051;BME280;4068;42.158;24.732;2023-03-19T07:16:02;100324.91;;;7.78;59.79
8051;BME280;4068;42.158;24.732;2023-03-19T07:18:28;100350.94;;;8.01;59.91
8051;BME280;4068;42.158;24.732;2023-03-19T07:20:54;100321.03;;;8.00;59.88
8051;BME280;4068;42.158;24.732;2023-03-19T07:23:20;100324.66;;;8.13;58.12
8051;BME280;4068;42.158;24.732;2023-03-19T07:25:45;100324.94;;;8.39;57.70
8051;BME280;4068;42.158;24.732;2023-03-19T07:28:12;100339.31;;;8.66;57.07
8051;BME280;4068;42.158;24.732;2023-03-19T07:30:37;100331.88;;;8.72;56.05
8051;BME280;4068;42.158;24.732;2023-03-19T07:33:04;100338.94;;;8.86;55.23
8051;BME280;4068;42.158;24.732;2023-03-19T07:35:30;100338.00;;;9.02;54.91
8051;BME280;4068;42.158;24.732;2023-03-19T07:37:55;100337.66;;;9.08;54.66
8051;BME280;4068;42.158;24.732;2023-03-19T07:40:21;100332.06;;;9.27;53.67
8051;BME280;4068;42.158;24.732;2023-03-19T07:42:46;100334.78;;;9.40;53.64
8051;BME280;4068;42.158;24.732;2023-03-19T07:45:12;100326.34;;;9.47;53.89
8051;BME280;4068;42.158;24.732;2023-03-19T07:47:37;100292.16;;;9.30;54.64
8051;BME280;4068;42.158;24.732;2023-03-19T07:50:04;100318.94;;;9.67;51.93
8051;BME280;4068;42.158;24.732;2023-03-19T07:52:30;100324.38;;;9.78;51.40
8051;BME280;4068;42.158;24.732;2023-03-19T07:54:55;100329.53;;;9.94;50.12
8051;BME280;4068;42.158;24.732;2023-03-19T07:57:21;100322.06;;;10.14;50.18
8051;BME280;4068;42.158;24.732;2023-03-19T07:59:46;100286.34;;;10.07;49.46
8051;BME280;4068;42.158;24.732;2023-03-19T08:02:12;100321.31;;;10.39;49.77
8051;BME280;4068;42.158;24.732;2023-03-19T08:04:38;100287.81;;;10.38;48.34
8051;BME280;4068;42.158;24.732;2023-03-19T08:07:03;100325.59;;;10.55;47.88
8051;BME280;4068;42.158;24.732;2023-03-19T08:09:29;100322.09;;;10.67;48.31
8051;BME280;4068;42.158;24.732;2023-03-19T08:11:54;100317.22;;;10.86;47.91
8051;BME280;4068;42.158;24.732;2023-03-19T08:14:20;100322.31;;;11.02;46.30
8051;BME280;4068;42.158;24.732;2023-03-19T08:16:49;100304.66;;;11.14;46.05
8051;BME280;4068;42.158;24.732;2023-03-19T08:19:15;100322.47;;;11.38;44.14
8051;BME280;4068;42.158;24.732;2023-03-19T08:21:41;100306.59;;;11.49;44.36
8051;BME280;4068;42.158;24.732;2023-03-19T08:24:06;100301.03;;;11.65;44.80
8051;BME280;4068;42.158;24.732;2023-03-19T08:26:32;100281.75;;;11.50;44.48
8051;BME280;4068;42.158;24.732;2023-03-19T08:28:58;100301.97;;;11.88;44.01
8051;BME280;4068;42.158;24.732;2023-03-19T08:31:23;100297.50;;;12.02;43.28
8051;BME280;4068;42.158;24.732;2023-03-19T08:33:49;100285.16;;;12.01;42.77
8051;BME280;4068;42.158;24.732;2023-03-19T08:36:15;100262.53;;;11.95;42.56
8051;BME280;4068;42.158;24.732;2023-03-19T08:38:41;100275.91;;;12.18;42.61
8051;BME280;4068;42.158;24.732;2023-03-19T08:41:08;100285.97;;;12.25;41.94
8051;BME280;4068;42.158;24.732;2023-03-19T08:43:34;100282.47;;;12.25;42.15
8051;BME280;4068;42.158;24.732;2023-03-19T08:46:04;100282.09;;;12.30;42.10
8051;BME280;4068;42.158;24.732;2023-03-19T08:48:30;100284.81;;;12.52;42.14
8051;BME280;4068;42.158;24.732;2023-03-19T08:50:58;100275.53;;;12.69;41.55
8051;BME280;4068;42.158;24.732;2023-03-19T08:53:24;100277.50;;;12.67;41.31
8051;BME280;4068;42.158;24.732;2023-03-19T08:55:55;100272.75;;;12.71;41.41
8051;BME280;4068;42.158;24.732;2023-03-19T08:58:22;100246.75;;;12.63;40.99
8051;BME280;4068;42.158;24.732;2023-03-19T09:00:47;100245.06;;;12.85;40.14
8051;BME280;4068;42.158;24.732;2023-03-19T09:03:14;100278.47;;;13.23;39.04
8051;BME280;4068;42.158;24.732;2023-03-19T09:05:40;100264.06;;;13.14;39.62
8051;BME280;4068;42.158;24.732;2023-03-19T09:08:06;100261.41;;;13.25;39.25
8051;BME280;4068;42.158;24.732;2023-03-19T09:10:32;100262.69;;;13.42;38.03
8051;BME280;4068;42.158;24.732;2023-03-19T09:12:57;100234.97;;;13.22;37.74
8051;BME280;4068;42.158;24.732;2023-03-19T09:15:23;100249.63;;;13.39;37.94
8051;BME280;4068;42.158;24.732;2023-03-19T09:17:48;100227.97;;;13.21;38.30
8051;BME280;4068;42.158;24.732;2023-03-19T09:20:14;100240.78;;;13.27;38.81
8051;BME280;4068;42.158;24.732;2023-03-19T09:22:40;100208.56;;;13.30;39.03
8051;BME280;4068;42.158;24.732;2023-03-19T09:25:06;100229.31;;;13.71;39.03
8051;BME280;4068;42.158;24.732;2023-03-19T09:27:31;100201.22;;;13.67;38.58
8051;BME280;4068;42.158;24.732;2023-03-19T09:29:57;100234.81;;;13.90;38.32
8051;BME280;4068;42.158;24.732;2023-03-19T09:32:22;100226.38;;;14.06;38.12
8051;BME280;4068;42.158;24.732;2023-03-19T09:34:48;100226.44;;;14.16;38.13
8051;BME280;4068;42.158;24.732;2023-03-19T09:37:13;100231.25;;;14.22;38.12
8051;BME280;4068;42.158;24.732;2023-03-19T09:39:39;100215.44;;;14.30;38.61
8051;BME280;4068;42.158;24.732;2023-03-19T09:44:57;100218.97;;;14.31;39.08
8051;BME280;4068;42.158;24.732;2023-03-19T09:47:29;100209.06;;;14.22;39.38
8051;BME280;4068;42.158;24.732;2023-03-19T09:49:58;100210.22;;;14.08;39.30
8051;BME280;4068;42.158;24.732;2023-03-19T09:57:53;100194.25;;;14.60;39.70
8051;BME280;4068;42.158;24.732;2023-03-19T10:00:29;100186.75;;;14.75;39.68
8051;BME280;4068;42.158;24.732;2023-03-19T10:16:15;100163.41;;;14.67;40.66
8051;BME280;4068;42.158;24.732;2023-03-19T10:18:46;100160.91;;;14.75;40.41
8051;BME280;4068;42.158;24.732;2023-03-19T10:21:34;100158.13;;;14.87;40.62
8051;BME280;4068;42.158;24.732;2023-03-19T10:27:18;100151.88;;;15.27;40.29
8051;BME280;4068;42.158;24.732;2023-03-19T10:29:44;100142.88;;;15.18;40.48
8051;BME280;4068;42.158;24.732;2023-03-19T10:34:40;100104.47;;;15.09;40.62
8051;BME280;4068;42.158;24.732;2023-03-19T10:37:13;100127.25;;;15.33;41.10
8051;BME280;4068;42.158;24.732;2023-03-19T10:39:44;100122.78;;;15.33;41.41
8051;BME280;4068;42.158;24.732;2023-03-19T10:44:58;100111.91;;;15.45;40.88
8051;BME280;4068;42.158;24.732;2023-03-19T10:47:25;100098.16;;;15.40;40.44
8051;BME280;4068;42.158;24.732;2023-03-19T10:49:51;100098.00;;;15.61;40.44
8051;BME280;4068;42.158;24.732;2023-03-19T10:52:23;100098.53;;;15.64;39.91
8051;BME280;4068;42.158;24.732;2023-03-19T10:55:04;100096.69;;;15.75;39.80
8051;BME280;4068;42.158;24.732;2023-03-19T10:57:30;100082.94;;;15.89;40.07
8051;BME280;4068;42.158;24.732;2023-03-19T11:00:05;100086.00;;;15.94;39.58
8051;BME280;4068;42.158;24.732;2023-03-19T11:02:31;100080.88;;;16.11;39.97
8051;BME280;4068;42.158;24.732;2023-03-19T11:05:31;100071.25;;;16.28;39.36
8051;BME280;4068;42.158;24.732;2023-03-19T11:08:02;100068.06;;;16.42;39.17
8051;BME280;4068;42.158;24.732;2023-03-19T11:10:31;100059.59;;;16.47;39.24
8051;BME280;4068;42.158;24.732;2023-03-19T11:13:02;100029.41;;;16.27;39.34
8051;BME280;4068;42.158;24.732;2023-03-19T11:15:33;100028.44;;;16.46;38.96
8051;BME280;4068;42.158;24.732;2023-03-19T11:18:06;100053.22;;;16.76;38.98
8051;BME280;4068;42.158;24.732;2023-03-19T11:20:35;100051.44;;;16.66;38.72
8051;BME280;4068;42.158;24.732;2023-03-19T11:23:05;100038.53;;;16.62;39.01
8051;BME280;4068;42.158;24.732;2023-03-19T11:25:49;100010.13;;;16.51;38.39
8051;BME280;4068;42.158;24.732;2023-03-19T11:28:18;100028.59;;;16.72;38.39
8051;BME280;4068;42.158;24.732;2023-03-19T11:36:55;100025.69;;;16.83;38.09
8051;BME280;4068;42.158;24.732;2023-03-19T11:48:12;100017.97;;;16.80;38.24
8051;BME280;4068;42.158;24.732;2023-03-19T11:50:59;100011.44;;;16.83;38.07
8051;BME280;4068;42.158;24.732;2023-03-19T11:54:14;100009.94;;;16.98;37.89
8051;BME280;4068;42.158;24.732;2023-03-19T11:56:42;100005.81;;;17.04;38.23
8051;BME280;4068;42.158;24.732;2023-03-19T12:15:40;99993.81;;;17.34;37.88
8051;BME280;4068;42.158;24.732;2023-03-19T12:29:22;99981.50;;;17.50;37.43
8051;BME280;4068;42.158;24.732;2023-03-19T12:34:40;99976.59;;;17.71;37.24
8051;BME280;4068;42.158;24.732;2023-03-19T12:37:13;99972.16;;;17.80;36.79
8051;BME280;4068;42.158;24.732;2023-03-19T12:40:04;99953.22;;;17.90;37.10
8051;BME280;4068;42.158;24.732;2023-03-19T12:42:37;99959.56;;;17.81;36.82
8051;BME280;4068;42.158;24.732;2023-03-19T12:45:10;99950.84;;;17.79;36.51
8051;BME280;4068;42.158;24.732;2023-03-19T12:47:40;99955.19;;;17.80;36.47
8051;BME280;4068;42.158;24.732;2023-03-19T12:50:12;99948.84;;;17.81;36.62
8051;BME280;4068;42.158;24.732;2023-03-19T12:52:41;99926.66;;;17.70;36.50
8051;BME280;4068;42.158;24.732;2023-03-19T12:58:21;99941.03;;;17.96;36.33
8051;BME280;4068;42.158;24.732;2023-03-19T13:00:55;99938.34;;;17.96;36.27
8051;BME280;4068;42.158;24.732;2023-03-19T13:03:43;99932.16;;;17.95;36.74
8051;BME280;4068;42.158;24.732;2023-03-19T13:06:25;99933.16;;;17.94;36.47
8051;BME280;4068;42.158;24.732;2023-03-19T13:14:23;99927.13;;;17.66;36.80
8051;BME280;4068;42.158;24.732;2023-03-19T13:17:06;99914.69;;;17.56;36.55
8051;BME280;4068;42.158;24.732;2023-03-19T13:19:50;99912.09;;;17.73;36.92
8051;BME280;4068;42.158;24.732;2023-03-19T13:22:31;99884.81;;;17.43;37.10
8051;BME280;4068;42.158;24.732;2023-03-19T13:25:00;99908.72;;;17.71;37.13
8051;BME280;4068;42.158;24.732;2023-03-19T13:27:32;99904.06;;;17.73;37.21
8051;BME280;4068;42.158;24.732;2023-03-19T13:32:48;99894.81;;;17.67;37.20
8051;BME280;4068;42.158;24.732;2023-03-19T13:35:33;99891.63;;;17.72;37.84
8051;BME280;4068;42.158;24.732;2023-03-19T13:38:15;99893.81;;;17.76;37.47
8051;BME280;4068;42.158;24.732;2023-03-19T13:40:48;99894.38;;;17.88;37.70
8051;BME280;4068;42.158;24.732;2023-03-19T13:49:09;99879.03;;;18.07;37.29
8051;BME280;4068;42.158;24.732;2023-03-19T13:51:47;99870.50;;;18.11;37.57
8051;BME280;4068;42.158;24.732;2023-03-19T13:54:19;99838.28;;;18.03;37.52
8051;BME280;4068;42.158;24.732;2023-03-19T13:59:37;99866.16;;;18.19;37.56
8051;BME280;4068;42.158;24.732;2023-03-19T14:05:03;99854.41;;;18.11;37.75
8051;BME280;4068;42.158;24.732;2023-03-19T14:07:36;99854.09;;;18.23;37.69
8051;BME280;4068;42.158;24.732;2023-03-19T14:12:39;99849.03;;;18.28;38.19
8051;BME280;4068;42.158;24.732;2023-03-19T14:17:35;99847.72;;;18.32;37.78
8051;BME280;4068;42.158;24.732;2023-03-19T14:25:19;99849.34;;;18.08;37.45
8051;BME280;4068;42.158;24.732;2023-03-19T14:27:50;99831.91;;;17.96;37.61
8051;BME280;4068;42.158;24.732;2023-03-19T14:30:39;99846.66;;;18.00;37.64
8051;BME280;4068;42.158;24.732;2023-03-19T14:33:17;99846.25;;;17.87;38.00
8051;BME280;4068;42.158;24.732;2023-03-19T14:35:45;99842.72;;;17.86;38.29
8051;BME280;4068;42.158;24.732;2023-03-19T14:38:19;99823.44;;;17.83;38.29
8051;BME280;4068;42.158;24.732;2023-03-19T14:40:50;99844.97;;;17.99;38.27
8051;BME280;4068;42.158;24.732;2023-03-19T14:45:59;99830.47;;;17.84;38.35
8051;BME280;4068;42.158;24.732;2023-03-19T14:51:38;99840.34;;;17.75;38.68
8051;BME280;4068;42.158;24.732;2023-03-19T14:54:34;99832.44;;;17.65;39.01
8051;BME280;4068;42.158;24.732;2023-03-19T14:57:07;99829.41;;;17.60;39.09
8051;BME280;4068;42.158;24.732;2023-03-19T14:59:37;99816.69;;;17.62;39.07
8051;BME280;4068;42.158;24.732;2023-03-19T15:02:05;99833.47;;;17.72;39.37
8051;BME280;4068;42.158;24.732;2023-03-19T15:04:44;99825.91;;;17.68;39.10
8051;BME280;4068;42.158;24.732;2023-03-19T15:07:18;99832.66;;;17.80;39.54
8051;BME280;4068;42.158;24.732;2023-03-19T15:09:44;99829.44;;;17.76;39.66